Time;durP1;ratioP1;P1;durP2;ratioP2;P2;SDS_P1;SDS_P2;PMS_P1;PMS_P2;Temp;Humidity;BMP_temperature;BMP_pressure;BME280_temperature;BME280_humidity;BME280_pressure;Samples;Min_cycle;Max_cycle;Signal;HPM_P1;HPM_P2
2021/05/02 00:01:14;;;;;;;2.80;2.60;;;22.80;47.70;;;;;;5033603;28;20426;-84
2021/05/02 00:03:40;;;;;;;2.70;2.20;;;23.10;47.90;;;;;;5051758;28;20414;-84
2021/05/02 00:06:11;;;;;;;2.40;2.20;;;22.90;47.70;;;;;;5033374;28;20518;-84
2021/05/02 00:08:46;;;;;;;2.30;2.10;;;22.90;47.70;;;;;;5034593;28;20430;-84
2021/05/02 00:11:12;;;;;;;2.20;2.00;;;22.90;47.70;;;;;;5051390;28;20445;-84
2021/05/02 00:13:41;;;;;;;2.10;1.90;;;22.90;47.70;;;;;;5033834;28;20426;-84
2021/05/02 00:16:08;;;;;;;2.47;2.20;;;22.80;47.70;;;;;;5050501;28;20413;-85
2021/05/02 00:18:35;;;;;;;2.30;2.10;;;22.80;47.70;;;;;;5027634;28;20423;-84
2021/05/02 00:21:07;;;;;;;2.30;1.90;;;22.80;47.70;;;;;;5017085;28;20184;-84
2021/05/02 00:23:38;;;;;;;1.87;1.70;;;22.80;47.70;;;;;;5016654;28;20573;-84
2021/05/02 00:26:05;;;;;;;2.13;1.93;;;22.80;47.70;;;;;;5050594;28;20486;-84
2021/05/02 00:28:35;;;;;;;2.07;1.90;;;22.80;47.80;;;;;;5032992;28;20418;-84
2021/05/02 00:31:09;;;;;;;1.80;1.70;;;22.80;47.80;;;;;;5032918;28;20454;-84
2021/05/02 00:33:37;;;;;;;2.20;2.00;;;22.80;47.80;;;;;;5050601;28;20402;-84
2021/05/02 00:36:04;;;;;;;1.90;1.80;;;22.80;47.80;;;;;;5051358;28;20441;-84
2021/05/02 00:38:35;;;;;;;1.83;1.70;;;22.80;47.80;;;;;;5032362;28;20426;-84
2021/05/02 00:41:08;;;;;;;1.97;1.70;;;22.80;47.80;;;;;;5050498;28;20410;-84
2021/05/02 00:43:56;;;;;;;1.90;1.70;;;22.80;47.80;;;;;;5047578;28;20430;-88
2021/05/02 00:46:29;;;;;;;2.07;1.90;;;22.80;47.80;;;;;;5030003;28;20414;-88
2021/05/02 00:49:14;;;;;;;2.27;1.60;;;22.80;47.90;;;;;;5028858;28;20410;-88
2021/05/02 00:51:45;;;;;;;2.37;2.17;;;22.80;47.90;;;;;;5046349;28;20391;-88
2021/05/02 00:54:15;;;;;;;2.23;2.03;;;22.80;47.90;;;;;;5045910;28;20399;-88
2021/05/02 00:57:00;;;;;;;2.27;1.97;;;22.80;47.90;;;;;;5028499;28;20472;-88
2021/05/02 00:59:33;;;;;;;4.30;1.83;;;22.80;47.90;;;;;;5028517;28;20406;-88
2021/05/02 01:02:03;;;;;;;1.93;1.73;;;22.80;47.90;;;;;;5045481;28;20895;-86
2021/05/02 01:04:32;;;;;;;2.00;1.80;;;22.80;47.90;;;;;;5012974;28;20418;-85
2021/05/02 01:07:02;;;;;;;1.63;1.53;;;22.80;48.50;;;;;;5011212;28;20431;-86
2021/05/02 01:09:39;;;;;;;2.03;1.83;;;22.80;47.90;;;;;;5025932;28;20457;-85
2021/05/02 01:12:13;;;;;;;1.73;1.63;;;22.80;47.80;;;;;;5026194;28;20426;-85
2021/05/02 01:14:46;;;;;;;1.90;1.73;;;22.80;47.80;;;;;;5008586;28;20406;-86
2021/05/02 01:17:18;;;;;;;1.87;1.70;;;22.80;47.80;;;;;;5008246;28;20412;-85
2021/05/02 01:19:47;;;;;;;1.70;1.60;;;22.80;47.70;;;;;;5026287;28;20414;-85
2021/05/02 01:22:17;;;;;;;2.10;1.80;;;22.80;47.70;;;;;;5008944;28;20415;-85
2021/05/02 01:24:51;;;;;;;1.83;1.73;;;22.80;47.70;;;;;;5009052;28;20925;-85
2021/05/02 01:27:29;;;;;;;1.77;1.67;;;22.90;47.70;;;;;;5009217;28;20491;-85
2021/05/02 01:29:57;;;;;;;1.90;1.80;;;22.80;47.70;;;;;;5026119;28;20521;-85
2021/05/02 01:32:25;;;;;;;1.80;1.70;;;22.90;47.70;;;;;;5027333;28;20426;-86
2021/05/02 01:34:51;;;;;;;2.10;1.90;;;22.80;47.70;;;;;;5009346;28;20435;-86
2021/05/02 01:37:17;;;;;;;2.17;1.97;;;22.90;47.70;;;;;;5026827;28;20496;-85
2021/05/02 01:39:45;;;;;;;1.90;1.70;;;22.90;47.70;;;;;;5009023;28;20290;-85
2021/05/02 01:42:11;;;;;;;1.80;1.50;;;22.90;47.70;;;;;;5007827;28;20173;-85
2021/05/02 01:44:40;;;;;;;2.03;1.73;;;22.90;47.70;;;;;;5025948;28;20439;-85
2021/05/02 01:47:10;;;;;;;1.73;1.57;;;22.90;47.70;;;;;;5008735;28;20412;-85
2021/05/02 01:49:48;;;;;;;1.83;1.73;;;22.90;47.70;;;;;;5026502;28;20454;-85
2021/05/02 01:52:19;;;;;;;1.70;1.40;;;22.90;47.60;;;;;;5008401;28;20503;-85
2021/05/02 01:54:46;;;;;;;1.87;1.77;;;22.90;47.60;;;;;;5008172;28;20419;-85
2021/05/02 01:57:17;;;;;;;2.27;1.60;;;22.90;47.70;;;;;;5008624;28;20412;-86
2021/05/02 01:59:47;;;;;;;1.70;1.57;;;22.90;47.70;;;;;;5025349;28;20398;-86
2021/05/02 02:02:18;;;;;;;1.97;1.80;;;22.90;47.70;;;;;;5026530;28;20441;-86
2021/05/02 02:04:49;;;;;;;2.63;1.80;;;22.90;47.70;;;;;;5009315;28;20422;-88
2021/05/02 02:07:19;;;;;;;2.00;1.80;;;22.90;47.60;;;;;;5026092;28;20921;-88
2021/05/02 02:09:45;;;;;;;1.57;1.47;;;22.90;47.60;;;;;;5009042;28;20463;-88
2021/05/02 02:12:13;;;;;;;1.97;1.77;;;22.90;47.60;;;;;;5007585;28;20412;-88
2021/05/02 02:14:40;;;;;;;1.73;1.63;;;22.90;47.60;;;;;;5009539;28;20415;-88
2021/05/02 02:17:08;;;;;;;1.80;1.70;;;22.90;47.60;;;;;;5027087;28;20460;-88
2021/05/02 02:19:35;;;;;;;1.97;1.87;;;22.90;47.60;;;;;;5008471;28;20419;-88
2021/05/02 02:22:01;;;;;;;1.93;1.60;;;22.80;47.50;;;;;;5024763;28;20427;-88
2021/05/02 02:24:47;;;;;;;1.90;1.60;;;22.90;47.60;;;;;;5007518;28;20427;-88
2021/05/02 02:27:14;;;;;;;1.93;1.73;;;22.90;47.60;;;;;;5007907;28;20414;-88
2021/05/02 02:29:44;;;;;;;1.77;1.50;;;22.90;47.60;;;;;;5026465;28;20857;-88
2021/05/02 02:32:12;;;;;;;1.50;1.40;;;22.90;47.60;;;;;;5028393;28;20404;-88
2021/05/02 02:34:48;;;;;;;2.00;1.73;;;22.90;47.60;;;;;;5028642;28;20404;-88
2021/05/02 02:37:19;;;;;;;1.67;1.57;;;22.90;47.70;;;;;;5028659;28;20490;-88
2021/05/02 02:39:54;;;;;;;1.73;1.63;;;22.90;47.60;;;;;;5010193;28;20822;-88
2021/05/02 02:42:23;;;;;;;1.80;1.70;;;22.90;47.70;;;;;;5010614;28;20427;-88
2021/05/02 02:45:03;;;;;;;2.10;1.90;;;22.90;47.70;;;;;;5027841;28;20474;-88
2021/05/02 02:47:38;;;;;;;2.10;1.90;;;22.90;47.60;;;;;;5029009;28;20392;-88
2021/05/02 02:50:08;;;;;;;1.70;1.60;;;22.90;47.70;;;;;;5011726;28;20994;-88
2021/05/02 02:52:43;;;;;;;2.97;2.20;;;22.90;47.70;;;;;;5012066;28;20415;-88
2021/05/02 02:55:11;;;;;;;1.97;1.57;;;22.90;47.70;;;;;;5028482;28;20458;-88
2021/05/02 02:57:52;;;;;;;1.87;1.60;;;22.90;47.70;;;;;;5029102;28;20873;-88
2021/05/02 03:00:23;;;;;;;1.77;1.67;;;22.90;47.60;;;;;;5028610;28;20909;-88
2021/05/02 03:03:08;;;;;;;1.77;1.67;;;22.90;47.70;;;;;;5027430;28;20403;-88
2021/05/02 03:05:35;;;;;;;2.17;1.97;;;22.90;47.60;;;;;;5028631;28;20419;-88
2021/05/02 03:08:03;;;;;;;1.93;1.60;;;22.90;47.70;;;;;;5010178;28;20442;-88
2021/05/02 03:10:49;;;;;;;2.10;1.80;;;22.90;47.70;;;;;;5010262;28;20451;-88
2021/05/02 03:13:15;;;;;;;1.90;1.70;;;22.90;47.60;;;;;;5027570;28;20410;-88
2021/05/02 03:15:42;;;;;;;1.70;1.60;;;22.90;47.70;;;;;;5010206;28;20407;-88
2021/05/02 03:18:19;;;;;;;1.50;1.40;;;22.90;47.70;;;;;;5009402;28;20411;-88
2021/05/02 03:20:50;;;;;;;1.50;1.40;;;22.90;47.70;;;;;;5009797;28;20797;-88
2021/05/02 03:23:27;;;;;;;1.80;1.43;;;22.90;47.70;;;;;;5009939;28;20411;-88
2021/05/02 03:29:39;;;;;;;1.93;1.83;;;22.90;47.70;;;;;;4966971;29;20445;-88
2021/05/02 03:32:08;;;;;;;1.60;1.47;;;22.80;47.60;;;;;;4967467;29;20418;-88
2021/05/02 03:34:39;;;;;;;1.60;1.37;;;22.90;47.70;;;;;;4967115;28;20516;-88
2021/05/02 03:37:18;;;;;;;1.60;1.50;;;22.80;47.60;;;;;;4967025;28;20483;-88
2021/05/02 03:39:49;;;;;;;1.70;1.60;;;22.80;47.60;;;;;;4966380;28;20430;-88
2021/05/02 03:42:16;;;;;;;1.80;1.70;;;22.80;47.70;;;;;;4967435;29;20496;-88
2021/05/02 03:44:42;;;;;;;1.80;1.70;;;22.80;47.70;;;;;;4967283;29;20449;-88
2021/05/02 03:47:08;;;;;;;1.87;1.77;;;22.80;47.60;;;;;;4966514;28;20429;-88
2021/05/02 03:49:35;;;;;;;1.60;1.50;;;22.80;47.60;;;;;;4966778;28;20473;-87
2021/05/02 03:52:02;;;;;;;1.90;1.77;;;22.80;47.60;;;;;;4967506;29;20494;-87
2021/05/02 03:54:28;;;;;;;1.60;1.50;;;22.80;48.20;;;;;;4967325;29;20402;-88
2021/05/02 03:56:54;;;;;;;1.57;1.47;;;22.80;47.70;;;;;;4968483;28;20418;-88
2021/05/02 03:59:23;;;;;;;1.63;1.53;;;22.80;47.60;;;;;;4968565;29;20194;-88
2021/05/02 04:01:56;;;;;;;3.13;1.70;;;22.80;47.60;;;;;;4968242;29;20441;-88
2021/05/02 04:04:30;;;;;;;1.63;1.53;;;22.80;47.60;;;;;;5008910;28;20419;-88
2021/05/02 04:07:10;;;;;;;1.67;1.57;;;22.80;47.70;;;;;;5011836;28;20435;-88
2021/05/02 04:09:37;;;;;;;1.73;1.60;;;22.80;47.70;;;;;;5028734;28;20442;-88
2021/05/02 04:12:04;;;;;;;1.63;1.53;;;22.80;47.70;;;;;;5028848;28;20415;-88
2021/05/02 04:14:33;;;;;;;1.70;1.60;;;22.80;47.70;;;;;;5009919;28;20414;-88
2021/05/02 04:20:21;;;;;;;1.93;1.80;;;22.80;47.70;;;;;;5027401;28;20404;-88
2021/05/02 04:22:49;;;;;;;1.60;1.40;;;22.80;47.80;;;;;;5027163;28;20408;-88
2021/05/02 04:25:15;;;;;;;2.23;2.03;;;22.80;47.80;;;;;;5010436;28;20181;-88
2021/05/02 04:27:43;;;;;;;1.67;1.57;;;22.80;47.80;;;;;;5014132;28;20421;-88
2021/05/02 04:30:10;;;;;;;1.60;1.43;;;22.80;47.80;;;;;;5029268;28;20454;-88
2021/05/02 04:32:35;;;;;;;1.80;1.70;;;22.80;47.70;;;;;;5046813;28;20406;-88
2021/05/02 04:35:01;;;;;;;1.80;1.40;;;22.80;47.70;;;;;;5029565;28;20434;-88
2021/05/02 04:37:27;;;;;;;2.23;1.70;;;22.80;47.70;;;;;;5046905;28;20179;-88
2021/05/02 04:39:53;;;;;;;1.63;1.53;;;22.80;47.70;;;;;;5046803;28;20418;-88
2021/05/02 04:42:20;;;;;;;1.60;1.50;;;22.80;47.70;;;;;;5028560;28;20187;-87
2021/05/02 04:44:45;;;;;;;1.60;1.50;;;22.80;47.70;;;;;;5046308;28;20183;-88
2021/05/02 04:47:19;;;;;;;1.50;1.40;;;22.80;47.70;;;;;;5046310;28;20414;-88
2021/05/02 04:49:46;;;;;;;2.37;1.80;;;22.80;47.60;;;;;;5046950;28;20191;-88
2021/05/02 04:52:13;;;;;;;1.80;1.70;;;22.80;47.60;;;;;;5028158;28;20417;-88
2021/05/02 04:54:43;;;;;;;1.80;1.70;;;22.80;47.70;;;;;;5046369;28;20435;-88
2021/05/02 04:57:26;;;;;;;1.83;1.70;;;22.80;47.60;;;;;;5046598;28;20956;-88
2021/05/02 04:59:52;;;;;;;1.60;1.50;;;22.80;47.60;;;;;;5027985;28;20435;-87
2021/05/02 05:02:18;;;;;;;1.53;1.43;;;22.80;47.70;;;;;;5028162;28;20422;-87
2021/05/02 05:04:45;;;;;;;2.20;2.00;;;22.80;47.70;;;;;;5049347;28;20742;-83
2021/05/02 05:07:13;;;;;;;1.60;1.50;;;22.80;47.70;;;;;;5016143;28;20191;-83
2021/05/02 05:09:39;;;;;;;1.70;1.60;;;22.80;47.70;;;;;;5026139;28;20460;-82
2021/05/02 05:12:06;;;;;;;1.70;1.60;;;22.80;47.70;;;;;;5044403;28;20430;-83
2021/05/02 05:14:54;;;;;;;1.83;1.73;;;22.80;47.70;;;;;;5026600;28;20411;-83
2021/05/02 05:17:20;;;;;;;1.73;1.63;;;22.80;47.70;;;;;;5042336;28;20418;-83
2021/05/02 05:19:46;;;;;;;1.83;1.50;;;22.80;47.70;;;;;;5044012;28;20413;-83
2021/05/02 05:22:12;;;;;;;1.70;1.40;;;22.80;47.70;;;;;;5028074;28;20579;-87
2021/05/02 05:24:38;;;;;;;1.87;1.77;;;22.80;47.70;;;;;;5046027;28;20187;-87
2021/05/02 05:37:23;;;;;;;1.80;1.70;;;22.80;47.70;;;;;;5045963;28;20815;-88
2021/05/02 05:39:51;;;;;;;1.67;1.57;;;22.80;47.80;;;;;;5046765;28;20430;-87
2021/05/02 05:42:19;;;;;;;2.17;2.00;;;22.70;47.70;;;;;;5047260;28;20386;-87
2021/05/02 05:44:44;;;;;;;1.90;1.60;;;22.80;47.80;;;;;;5046780;28;20496;-87
2021/05/02 05:47:12;;;;;;;1.60;1.50;;;22.80;47.80;;;;;;5028437;28;20426;-88
2021/05/02 05:49:42;;;;;;;1.90;1.60;;;22.80;47.80;;;;;;5027960;28;20258;-88
2021/05/02 05:52:09;;;;;;;1.60;1.50;;;22.80;47.80;;;;;;5045621;28;20410;-88
2021/05/02 06:05:11;;;;;;;1.67;1.57;;;22.80;47.80;;;;;;4881945;29;20497;-87
2021/05/02 06:07:37;;;;;;;1.77;1.63;;;22.70;47.80;;;;;;4890436;29;20413;-87
2021/05/02 06:10:05;;;;;;;1.83;1.67;;;22.70;47.80;;;;;;4913013;29;21032;-88
2021/05/02 06:12:31;;;;;;;1.93;1.73;;;22.70;47.70;;;;;;4897542;29;20435;-88
2021/05/02 06:14:57;;;;;;;1.80;1.70;;;22.80;47.80;;;;;;4913471;29;20499;-87
2021/05/02 06:17:23;;;;;;;1.67;1.57;;;22.70;47.70;;;;;;4913568;29;20424;-88
2021/05/02 06:19:57;;;;;;;1.70;1.60;;;22.80;47.80;;;;;;4915435;29;20235;-86
2021/05/02 06:22:43;;;;;;;1.70;1.50;;;22.80;47.70;;;;;;4900898;29;20195;-84
2021/05/02 06:25:12;;;;;;;1.70;1.60;;;22.80;47.80;;;;;;4889733;29;20444;-84
2021/05/02 06:27:37;;;;;;;1.40;1.30;;;22.80;47.70;;;;;;4894573;29;20416;-82
2021/05/02 06:30:05;;;;;;;1.90;1.70;;;22.80;47.70;;;;;;4895014;29;20468;-82
2021/05/02 06:32:30;;;;;;;2.10;1.90;;;22.80;48.30;;;;;;4910375;29;20196;-83
2021/05/02 06:34:57;;;;;;;1.50;1.30;;;22.80;47.80;;;;;;4982694;28;20433;-83
2021/05/02 06:37:23;;;;;;;1.73;1.53;;;22.80;47.70;;;;;;5047325;28;20164;-84
2021/05/02 06:40:10;;;;;;;1.37;1.27;;;22.80;47.70;;;;;;5013900;28;20434;-83
2021/05/02 06:42:35;;;;;;;1.60;1.50;;;22.80;47.60;;;;;;5029475;28;20418;-82
2021/05/02 06:45:01;;;;;;;1.40;1.30;;;22.80;48.30;;;;;;5029843;28;20453;-82
2021/05/02 06:47:30;;;;;;;1.93;1.40;;;22.80;47.70;;;;;;5029678;28;20187;-83
2021/05/02 06:53:19;;;;;;;1.47;1.37;;;22.90;47.70;;;;;;5047898;28;20382;-83
2021/05/02 06:55:45;;;;;;;1.50;1.40;;;22.80;47.70;;;;;;5047809;28;20411;-83
2021/05/02 06:58:11;;;;;;;1.83;1.73;;;22.80;47.70;;;;;;5046558;28;20171;-83
2021/05/02 07:00:37;;;;;;;1.50;1.40;;;22.80;47.70;;;;;;5028178;28;20207;-83
2021/05/02 07:03:07;;;;;;;1.53;1.43;;;22.80;47.70;;;;;;5046772;28;20418;-83
2021/05/02 07:05:38;;;;;;;1.90;1.70;;;22.80;47.70;;;;;;5029416;28;20411;-85
2021/05/02 07:08:04;;;;;;;1.37;1.27;;;22.80;47.70;;;;;;5047554;28;20433;-82
2021/05/02 07:10:33;;;;;;;1.40;1.30;;;22.80;47.70;;;;;;5028830;28;20505;-83
2021/05/02 07:12:58;;;;;;;2.00;1.80;;;23.00;47.80;;;;;;5028900;28;20417;-83
2021/05/02 07:15:24;;;;;;;1.53;1.43;;;22.80;47.70;;;;;;5028273;28;20446;-85
2021/05/02 07:17:53;;;;;;;1.67;1.27;;;22.80;47.70;;;;;;5031062;28;20186;-84
2021/05/02 07:20:19;;;;;;;1.80;1.70;;;22.90;47.70;;;;;;5028751;28;20182;-83
2021/05/02 07:22:51;;;;;;;1.60;1.50;;;22.80;47.30;;;;;;5046029;28;20418;-83
2021/05/02 07:25:17;;;;;;;1.63;1.53;;;22.80;47.70;;;;;;5029111;28;20946;-83
2021/05/02 07:27:55;;;;;;;1.43;1.33;;;22.90;47.70;;;;;;5028911;28;20419;-83
2021/05/02 07:30:24;;;;;;;1.70;1.60;;;22.90;47.70;;;;;;5030211;28;20488;-84
2021/05/02 07:32:58;;;;;;;1.40;1.30;;;22.80;47.70;;;;;;5029980;28;20410;-83
2021/05/02 07:35:31;;;;;;;1.37;1.27;;;22.90;47.70;;;;;;5047650;28;20410;-83
2021/05/02 07:37:57;;;;;;;1.63;1.53;;;22.90;47.70;;;;;;5048029;28;20496;-82
2021/05/02 07:40:37;;;;;;;1.43;1.33;;;22.80;47.70;;;;;;5030206;28;20561;-83
2021/05/02 07:43:03;;;;;;;1.50;1.40;;;22.90;47.70;;;;;;5033761;28;20410;-84
2021/05/02 07:45:54;;;;;;;1.30;1.20;;;22.80;47.60;;;;;;5036134;28;20433;-83
2021/05/02 07:48:20;;;;;;;1.50;1.40;;;22.90;47.70;;;;;;5038627;28;20415;-83
2021/05/02 07:50:46;;;;;;;1.63;1.53;;;22.80;47.70;;;;;;5031096;28;20488;-83
2021/05/02 07:53:12;;;;;;;1.73;1.47;;;22.80;47.70;;;;;;5049135;28;20191;-85
2021/05/02 07:55:39;;;;;;;1.43;1.30;;;22.80;47.70;;;;;;5030635;28;20415;-84
2021/05/02 07:58:05;;;;;;;1.70;1.40;;;22.90;48.30;;;;;;5030983;28;20172;-83
2021/05/02 08:00:37;;;;;;;2.10;1.90;;;22.90;47.70;;;;;;5035495;28;20410;-82
2021/05/02 08:03:03;;;;;;;1.90;1.63;;;22.90;47.70;;;;;;5037376;28;20183;-83
2021/05/02 08:05:31;;;;;;;1.90;1.70;;;22.90;47.70;;;;;;5052787;28;20474;-86
2021/05/02 08:07:58;;;;;;;2.37;2.17;;;22.90;47.70;;;;;;5035590;28;20414;-87
2021/05/02 08:10:25;;;;;;;2.80;2.20;;;22.90;47.70;;;;;;5054219;28;20462;-88
2021/05/02 08:13:04;;;;;;;2.57;1.73;;;22.90;47.60;;;;;;5035663;28;20991;-88
2021/05/02 08:15:34;;;;;;;2.20;2.00;;;22.90;47.60;;;;;;5052114;28;20418;-88
2021/05/02 08:18:10;;;;;;;2.50;2.30;;;22.90;47.70;;;;;;5035499;28;20494;-89
2021/05/02 08:20:39;;;;;;;2.27;2.07;;;22.90;47.50;;;;;;5014411;28;20425;-89
2021/05/02 08:23:04;;;;;;;2.07;1.77;;;22.80;47.50;;;;;;5046706;28;20461;-87
2021/05/02 08:25:35;;;;;;;1.80;1.70;;;22.80;47.50;;;;;;5029323;28;20414;-87
2021/05/02 08:28:01;;;;;;;1.83;1.60;;;22.80;47.50;;;;;;5046068;28;20171;-83
2021/05/02 08:30:30;;;;;;;1.80;1.70;;;22.80;47.50;;;;;;5046164;28;20454;-89
2021/05/02 08:32:56;;;;;;;1.80;1.50;;;22.80;47.50;;;;;;5029140;28;20239;-88
2021/05/02 08:35:24;;;;;;;2.10;1.90;;;22.80;47.60;;;;;;5029055;28;20410;-89
2021/05/02 08:37:50;;;;;;;2.50;1.80;;;22.80;47.60;;;;;;5031848;28;20418;-89
2021/05/02 08:40:19;;;;;;;2.10;1.90;;;22.80;47.60;;;;;;5024395;28;20422;-88
2021/05/02 08:42:45;;;;;;;1.70;1.53;;;22.90;47.60;;;;;;5031611;28;20180;-87
2021/05/02 08:45:16;;;;;;;1.70;1.60;;;22.80;47.60;;;;;;5030887;28;20402;-88
2021/05/02 08:47:42;;;;;;;2.77;1.43;;;22.90;47.70;;;;;;5046370;28;20160;-85
2021/05/02 08:53:30;;;;;;;1.77;1.63;;;22.90;47.70;;;;;;5046537;28;20159;-86
2021/05/02 08:55:57;;;;;;;1.97;1.77;;;22.80;47.70;;;;;;5029337;28;20441;-84
2021/05/02 08:58:24;;;;;;;1.80;1.70;;;22.80;47.60;;;;;;5046305;28;20422;-85
2021/05/02 09:01:00;;;;;;;1.50;1.40;;;22.80;47.70;;;;;;5045821;28;20425;-85
2021/05/02 09:03:46;;;;;;;2.40;1.80;;;22.80;47.60;;;;;;5029717;28;20422;-86
2021/05/02 09:06:36;;;;;;;1.93;1.73;;;22.90;47.70;;;;;;5045926;28;20438;-85
2021/05/02 09:09:07;;;;;;;2.20;1.70;;;22.80;47.60;;;;;;5029572;28;20429;-85
2021/05/02 09:11:54;;;;;;;1.43;1.33;;;23.00;47.90;;;;;;5028542;28;20465;-84
2021/05/02 09:14:27;;;;;;;2.13;1.60;;;22.80;47.70;;;;;;5046684;28;20395;-85
2021/05/02 09:17:18;;;;;;;1.73;1.63;;;22.80;47.70;;;;;;5039270;28;20442;-84
2021/05/02 09:19:50;;;;;;;2.77;1.80;;;22.80;47.70;;;;;;5027134;28;20458;-86
2021/05/02 09:22:17;;;;;;;1.70;1.60;;;22.80;47.70;;;;;;5028217;28;20433;-88
2021/05/02 09:31:52;;;;;;;2.13;1.70;;;22.80;47.80;;;;;;4949784;28;20419;-82
2021/05/02 09:34:23;;;;;;;2.53;2.00;;;22.80;48.10;;;;;;4934765;29;20411;-84
2021/05/02 09:37:36;;;;;;;2.30;1.73;;;22.90;48.20;;;;;;4923994;29;20475;-84
2021/05/02 09:43:43;;;;;;;;;;;;;;;;;;;;;
2021/05/02 09:46:50;;;;;;;;;;;;;;;;;;;;;
2021/05/02 09:50:17;;;;;;;;;;;;;;;;;;;;;
2021/05/02 10:07:20;;;;;;;2.60;1.60;;;23.00;47.90;;;;;;4876122;29;20421;-86
2021/05/02 10:10:12;;;;;;;4.33;1.90;;;23.10;48.00;;;;;;4856917;29;20888;-85
2021/05/02 10:16:15;;;;;;;4.73;1.73;;;23.10;48.00;;;;;;4874941;29;20390;-83
2021/05/02 10:19:26;;;;;;;;;;;;;;;;;;;;;
2021/05/02 10:22:39;;;;;;;3.30;2.20;;;23.20;48.10;;;;;;4878128;29;20407;-83
2021/05/02 10:25:49;;;;;;;3.53;1.70;;;23.20;48.10;;;;;;4874852;29;20422;-84
2021/05/02 10:28:25;;;;;;;1.73;1.37;;;23.20;48.10;;;;;;4865726;29;20430;-85
2021/05/02 10:30:55;;;;;;;6.03;2.10;;;23.20;48.10;;;;;;4877240;29;20880;-84
2021/05/02 10:33:42;;;;;;;1.87;1.73;;;23.20;48.10;;;;;;4956387;29;20433;-84
2021/05/02 10:36:49;;;;;;;2.60;1.87;;;23.30;48.10;;;;;;4955909;29;20445;-84
2021/05/02 10:39:15;;;;;;;1.93;1.60;;;23.30;48.10;;;;;;4990700;28;20418;-85
2021/05/02 10:42:05;;;;;;;3.47;1.70;;;23.30;48.10;;;;;;5051169;28;20449;-85
2021/05/02 10:44:31;;;;;;;3.10;1.80;;;23.30;48.10;;;;;;5033344;28;20406;-85
2021/05/02 10:47:08;;;;;;;4.57;1.70;;;23.30;48.20;;;;;;5033860;28;20410;-86
2021/05/02 10:49:36;;;;;;;4.30;1.70;;;23.40;48.20;;;;;;5029932;28;20425;-86
2021/05/02 10:52:29;;;;;;;2.60;1.50;;;23.40;48.20;;;;;;5033199;28;20417;-86
2021/05/02 10:55:14;;;;;;;2.10;1.60;;;23.50;48.30;;;;;;5033258;28;20483;-86
2021/05/02 10:57:46;;;;;;;2.30;1.73;;;23.40;48.20;;;;;;5033536;28;20482;-86
2021/05/02 11:00:25;;;;;;;2.60;1.80;;;23.40;48.30;;;;;;5035920;28;20799;-86
2021/05/02 11:02:56;;;;;;;2.00;1.80;;;23.40;48.20;;;;;;5033348;28;20809;-86
2021/05/02 11:05:45;;;;;;;2.67;1.90;;;23.50;48.30;;;;;;5051508;28;20413;-86
2021/05/02 11:08:18;;;;;;;2.50;2.30;;;23.50;48.30;;;;;;5034724;28;20771;-85
2021/05/02 11:10:51;;;;;;;4.30;1.83;;;23.50;48.30;;;;;;5032944;28;20465;-85
2021/05/02 11:13:28;;;;;;;1.70;1.60;;;23.50;48.30;;;;;;5035441;28;20410;-85
2021/05/02 11:16:00;;;;;;;2.83;1.50;;;23.50;48.20;;;;;;5034000;28;20924;-86
2021/05/02 11:18:51;;;;;;;2.17;1.70;;;23.50;48.20;;;;;;5033193;28;20849;-86
2021/05/02 11:21:17;;;;;;;3.77;1.70;;;23.60;48.20;;;;;;5050162;28;20908;-86
2021/05/02 11:24:04;;;;;;;1.77;1.67;;;23.50;48.20;;;;;;5032930;28;20429;-86
2021/05/02 11:32:42;;;;;;;3.40;2.00;;;23.60;48.30;;;;;;5049118;28;20414;-86
2021/05/02 11:35:20;;;;;;;2.70;1.53;;;23.60;48.30;;;;;;5033050;28;20465;-86
2021/05/02 11:37:45;;;;;;;1.97;1.60;;;23.60;48.30;;;;;;5016303;28;20414;-86
2021/05/02 11:41:10;;;;;;;2.17;1.97;;;23.60;48.30;;;;;;5032619;28;20426;-85
2021/05/02 11:43:39;;;;;;;1.90;1.50;;;23.60;48.20;;;;;;4951561;29;20218;-84
2021/05/02 11:46:16;;;;;;;3.17;1.90;;;23.60;48.30;;;;;;4953625;29;20426;-84
2021/05/02 11:48:58;;;;;;;2.97;1.90;;;23.60;48.30;;;;;;4937844;29;20485;-83
2021/05/02 11:51:30;;;;;;;2.60;1.57;;;23.60;48.30;;;;;;4951485;29;20662;-84
2021/05/02 11:54:05;;;;;;;2.50;1.90;;;23.60;48.30;;;;;;4935138;29;20506;-83
2021/05/02 11:56:37;;;;;;;1.80;1.40;;;23.60;48.30;;;;;;4950950;29;20399;-85
2021/05/02 11:59:28;;;;;;;2.50;1.57;;;23.60;48.30;;;;;;4936210;29;20407;-84
2021/05/02 12:02:16;;;;;;;1.70;1.60;;;23.60;48.20;;;;;;4951614;29;20425;-84
2021/05/02 12:04:56;;;;;;;2.10;1.53;;;23.60;48.30;;;;;;4935009;29;20457;-85
2021/05/02 12:14:23;;;;;;;2.40;1.60;;;23.60;48.40;;;;;;4896291;29;20469;-85
2021/05/02 12:17:09;;;;;;;1.87;1.73;;;23.70;48.50;;;;;;4895917;29;20481;-85
2021/05/02 12:19:40;;;;;;;1.50;1.40;;;23.60;48.40;;;;;;4932200;29;20422;-85
2021/05/02 12:22:06;;;;;;;3.80;1.50;;;23.60;49.00;;;;;;4955488;29;20402;-85
2021/05/02 12:24:36;;;;;;;1.90;1.67;;;23.70;48.50;;;;;;4955057;29;20426;-85
2021/05/02 12:27:07;;;;;;;1.80;1.60;;;23.70;48.40;;;;;;4956186;29;20195;-85
2021/05/02 12:29:38;;;;;;;2.10;1.67;;;23.70;48.40;;;;;;4957365;29;20461;-85
2021/05/02 12:32:06;;;;;;;1.50;1.40;;;23.70;48.50;;;;;;4956559;29;20444;-85
2021/05/02 12:34:38;;;;;;;1.53;1.43;;;23.70;48.40;;;;;;4956578;29;20453;-84
2021/05/02 12:37:48;;;;;;;1.33;1.23;;;23.70;48.30;;;;;;4973974;29;20409;-84
2021/05/02 12:40:23;;;;;;;1.77;1.60;;;23.70;48.30;;;;;;4878769;29;20445;-84
2021/05/02 12:42:52;;;;;;;4.10;2.97;;;23.70;48.40;;;;;;4965837;29;20538;-84
2021/05/02 12:45:20;;;;;;;2.00;1.30;;;23.70;48.30;;;;;;4952539;29;20431;-84
2021/05/02 12:47:47;;;;;;;2.10;1.60;;;23.70;48.40;;;;;;5015389;28;20438;-84
2021/05/02 12:50:23;;;;;;;1.90;1.50;;;23.70;48.40;;;;;;5015103;28;20459;-84
2021/05/02 12:52:57;;;;;;;1.60;1.50;;;23.80;48.40;;;;;;5015589;28;20411;-84
2021/05/02 12:55:31;;;;;;;2.53;1.60;;;23.80;48.40;;;;;;5016288;28;20439;-84
2021/05/02 12:58:09;;;;;;;2.60;1.50;;;23.80;48.40;;;;;;5015202;28;20506;-84
2021/05/02 13:00:51;;;;;;;2.17;1.40;;;23.80;48.40;;;;;;5016756;28;20478;-84
2021/05/02 13:06:50;;;;;;;2.17;1.97;;;23.80;48.40;;;;;;5030708;28;20412;-88
2021/05/02 13:09:16;;;;;;;1.67;1.57;;;23.80;48.40;;;;;;5027332;28;20504;-87
2021/05/02 13:11:45;;;;;;;4.40;1.70;;;23.70;48.50;;;;;;5026110;28;20463;-86
2021/05/02 13:14:14;;;;;;;2.63;1.40;;;23.80;48.50;;;;;;5008569;28;20415;-87
2021/05/02 13:16:45;;;;;;;4.60;1.57;;;23.80;48.50;;;;;;5009150;28;20431;-87
2021/05/02 13:19:27;;;;;;;2.13;1.73;;;23.80;48.40;;;;;;5027251;28;20908;-87
2021/05/02 13:22:11;;;;;;;1.80;1.60;;;23.80;48.30;;;;;;5009420;28;20408;-87
2021/05/02 13:25:12;;;;;;;1.70;1.50;;;23.80;48.40;;;;;;5009677;28;20416;-87
2021/05/02 13:27:49;;;;;;;2.23;2.03;;;23.80;48.30;;;;;;5023503;28;20410;-87
2021/05/02 13:30:27;;;;;;;1.70;1.23;;;23.80;48.30;;;;;;5008570;28;20518;-87
2021/05/02 13:33:10;;;;;;;1.50;1.30;;;23.80;48.50;;;;;;5010875;28;20439;-89
2021/05/02 13:35:46;;;;;;;6.23;1.80;;;23.80;48.30;;;;;;5011032;28;20470;-87
2021/05/02 13:38:17;;;;;;;1.20;1.03;;;23.80;48.30;;;;;;5010767;28;20427;-87
2021/05/02 13:40:58;;;;;;;2.20;1.60;;;23.80;48.30;;;;;;5011662;28;20542;-87
2021/05/02 13:43:27;;;;;;;2.13;1.90;;;23.80;48.40;;;;;;5011851;28;20457;-87
2021/05/02 13:45:53;;;;;;;2.50;1.27;;;23.80;48.30;;;;;;5009879;28;20897;-88
2021/05/02 13:48:23;;;;;;;1.70;1.40;;;23.80;48.40;;;;;;5029142;28;20499;-87
2021/05/02 13:50:49;;;;;;;2.00;1.80;;;23.70;48.20;;;;;;5011489;28;20188;-88
2021/05/02 13:53:23;;;;;;;1.40;1.30;;;23.60;48.30;;;;;;5028697;28;20407;-88
2021/05/02 13:55:54;;;;;;;1.60;1.40;;;23.70;48.30;;;;;;5011759;28;20411;-87
2021/05/02 13:58:19;;;;;;;1.97;1.57;;;23.70;48.20;;;;;;5009970;28;20410;-87
2021/05/02 14:00:45;;;;;;;1.50;1.40;;;23.70;48.30;;;;;;5027121;28;20470;-87
2021/05/02 14:03:11;;;;;;;1.80;1.50;;;23.70;48.40;;;;;;5026451;28;20176;-87
2021/05/02 14:05:43;;;;;;;1.90;1.60;;;23.70;48.40;;;;;;5008529;28;20438;-87
2021/05/02 14:08:11;;;;;;;1.77;1.67;;;23.70;48.30;;;;;;5009400;28;20187;-87
2021/05/02 14:10:40;;;;;;;2.13;1.40;;;23.70;48.40;;;;;;5009052;28;20486;-87
2021/05/02 14:13:06;;;;;;;2.33;1.73;;;23.70;48.20;;;;;;5008502;28;20415;-87
2021/05/02 14:15:32;;;;;;;1.80;1.60;;;23.70;48.40;;;;;;5027459;28;20777;-87
2021/05/02 14:17:58;;;;;;;3.90;2.00;;;23.70;48.40;;;;;;5009575;28;20415;-86
2021/05/02 14:20:24;;;;;;;2.80;2.40;;;23.60;48.40;;;;;;5026688;28;20177;-88
2021/05/02 14:22:50;;;;;;;3.40;2.00;;;23.60;48.30;;;;;;5008491;28;20211;-88
2021/05/02 14:28:29;;;;;;;1.93;1.73;;;23.60;48.30;;;;;;5029036;28;20187;-87
2021/05/02 14:31:25;;;;;;;3.40;2.60;;;23.60;48.30;;;;;;5028446;28;20822;-87
2021/05/02 14:37:16;;;;;;;3.33;2.00;;;23.50;47.80;;;;;;5031883;28;20404;-86
2021/05/02 14:40:26;;;;;;;2.67;2.47;;;23.40;47.80;;;;;;5014770;28;20427;-87
2021/05/02 14:43:21;;;;;;;4.33;2.40;;;23.40;47.80;;;;;;5012383;28;20446;-87
2021/05/02 14:46:11;;;;;;;2.80;2.37;;;23.40;47.90;;;;;;5014801;28;20419;-87